Time;durP1;ratioP1;P1;durP2;ratioP2;P2;SDS_P1;SDS_P2;PMS_P1;PMS_P2;Temp;Humidity;BMP_temperature;BMP_pressure;BME280_temperature;BME280_humidity;BME280_pressure;Samples;Min_cycle;Max_cycle;Signal;HPM_P1;HPM_P2
2021/11/12 00:02:30;;;;;;;58.75;32.00;;;8.10;99.90;;;;;;5030992;28;20083;-42
2021/11/12 00:13:19;;;;;;;60.38;32.05;;;8.10;99.90;;;;;;5023161;28;20030;-43
2021/11/12 00:15:53;;;;;;;57.53;30.73;;;8.00;99.90;;;;;;5032460;28;20018;-43
2021/11/12 00:18:22;;;;;;;62.08;32.55;;;8.10;99.90;;;;;;5041814;28;20013;-43
2021/11/12 00:20:49;;;;;;;57.72;32.40;;;8.10;99.90;;;;;;5046878;28;20045;-43
2021/11/12 00:23:16;;;;;;;55.95;30.50;;;8.10;99.90;;;;;;5042415;28;20033;-44
2021/11/12 00:25:42;;;;;;;50.25;27.58;;;8.10;99.90;;;;;;5045874;28;20029;-43
2021/11/12 00:28:09;;;;;;;52.22;28.60;;;8.10;99.90;;;;;;5041619;28;20092;-44
2021/11/12 00:31:01;;;;;;;50.25;29.10;;;8.10;99.90;;;;;;5046644;28;20065;-44
2021/11/12 00:38:41;;;;;;;54.85;29.30;;;8.10;99.90;;;;;;5041850;28;20110;-43
2021/11/12 00:43:54;;;;;;;52.17;29.85;;;8.20;99.90;;;;;;5041070;28;20064;-44
2021/11/12 00:46:25;;;;;;;48.38;26.55;;;8.20;99.90;;;;;;5045165;28;20611;-44
2021/11/12 00:48:59;;;;;;;52.63;30.00;;;8.20;99.90;;;;;;5040509;28;20075;-44
2021/11/12 00:51:31;;;;;;;51.10;28.75;;;8.20;99.90;;;;;;5049194;28;20028;-43
2021/11/12 00:56:28;;;;;;;53.35;29.65;;;8.20;99.90;;;;;;5030705;28;20033;-43
2021/11/12 00:58:56;;;;;;;54.25;29.50;;;8.20;99.90;;;;;;5037366;28;20172;-43
2021/11/12 01:01:24;;;;;;;62.92;33.67;;;8.20;99.90;;;;;;5044943;28;20056;-44
2021/11/12 01:03:51;;;;;;;56.85;29.58;;;8.20;99.90;;;;;;5043506;28;20491;-43
2021/11/12 01:06:17;;;;;;;53.30;30.65;;;8.20;99.90;;;;;;5044198;28;20037;-43
2021/11/12 01:08:43;;;;;;;56.08;32.03;;;8.20;99.90;;;;;;5045815;28;20036;-43
2021/11/12 01:11:10;;;;;;;61.47;33.75;;;8.20;99.90;;;;;;5043497;28;20055;-43
2021/11/12 01:13:37;;;;;;;71.63;34.53;;;8.10;99.90;;;;;;5041520;28;20041;-43
2021/11/12 01:16:03;;;;;;;59.95;32.00;;;8.10;99.90;;;;;;5041620;28;20032;-43
2021/11/12 01:18:29;;;;;;;56.42;29.13;;;8.10;99.90;;;;;;5045233;28;20033;-42
2021/11/12 01:20:55;;;;;;;67.03;32.22;;;8.10;99.90;;;;;;5041143;28;20017;-43
2021/11/12 01:23:21;;;;;;;53.10;30.42;;;8.10;99.90;;;;;;5049737;28;20025;-43
2021/11/12 01:25:47;;;;;;;51.50;27.90;;;8.10;99.90;;;;;;5039580;28;20021;-43
2021/11/12 01:28:13;;;;;;;64.90;32.30;;;8.10;99.90;;;;;;5042647;28;20447;-42
2021/11/12 01:30:39;;;;;;;62.90;32.72;;;8.10;99.90;;;;;;5043116;28;20024;-43
2021/11/12 01:33:05;;;;;;;70.38;33.25;;;8.10;99.90;;;;;;5040781;28;20486;-43
2021/11/12 01:35:31;;;;;;;64.85;32.45;;;8.10;99.90;;;;;;5046305;28;20025;-42
2021/11/12 01:37:57;;;;;;;58.15;31.23;;;8.10;99.90;;;;;;5039624;28;20078;-43
2021/11/12 01:40:25;;;;;;;65.78;32.50;;;8.10;99.90;;;;;;5046852;28;20483;-42
2021/11/12 01:43:23;;;;;;;62.92;32.35;;;8.00;99.90;;;;;;5040628;28;20025;-43
2021/11/12 01:48:58;;;;;;;66.10;32.90;;;8.10;99.90;;;;;;5040244;28;20032;-43
2021/11/12 01:59:11;;;;;;;;;;;8.10;99.90;;;;;;5030870;28;20159;-43
2021/11/12 02:01:49;;;;;;;57.35;28.95;;;8.20;99.90;;;;;;5027745;28;19979;-43
2021/11/12 02:04:18;;;;;;;51.90;29.27;;;8.10;99.90;;;;;;5037807;28;20526;-43
2021/11/12 02:06:44;;;;;;;49.17;27.60;;;8.10;99.90;;;;;;5047232;28;20096;-43
2021/11/12 02:09:17;;;;;;;58.08;31.92;;;8.10;99.90;;;;;;5035266;28;20026;-42
2021/11/12 02:11:44;;;;;;;60.72;31.95;;;8.10;99.90;;;;;;5045169;28;20348;-42
2021/11/12 02:14:10;;;;;;;60.30;31.23;;;8.10;99.90;;;;;;5037691;28;20036;-43
2021/11/12 02:16:41;;;;;;;63.67;32.30;;;8.10;99.90;;;;;;5044426;28;20028;-43
2021/11/12 02:19:07;;;;;;;55.58;28.65;;;8.10;99.90;;;;;;5038544;28;20017;-42
2021/11/12 02:22:00;;;;;;;59.17;30.58;;;8.10;99.90;;;;;;5039061;28;20113;-43
2021/11/12 02:24:19;;;;;;;60.80;31.50;;;8.10;99.90;;;;;;5039730;28;20043;-43
2021/11/12 02:26:53;;;;;;;55.75;31.30;;;8.00;99.90;;;;;;5038933;28;20032;-43
2021/11/12 02:29:18;;;;;;;63.30;29.98;;;8.00;99.90;;;;;;5039792;28;20099;-42
2021/11/12 02:31:44;;;;;;;67.78;30.33;;;8.00;99.90;;;;;;5037573;28;20190;-43
2021/11/12 02:34:12;;;;;;;57.20;30.60;;;8.10;99.90;;;;;;5039939;28;20022;-43
2021/11/12 02:36:39;;;;;;;51.60;29.42;;;8.00;99.90;;;;;;5036129;28;20104;-43
2021/11/12 02:39:08;;;;;;;53.55;28.73;;;8.00;99.90;;;;;;5042735;28;20390;-44
2021/11/12 02:41:34;;;;;;;49.30;27.40;;;8.10;99.90;;;;;;5034071;28;20071;-43
2021/11/12 02:44:00;;;;;;;57.20;30.35;;;8.10;99.90;;;;;;5047234;28;20017;-44
2021/11/12 02:46:27;;;;;;;42.85;24.95;;;8.20;99.90;;;;;;5038202;28;20325;-43
2021/11/12 02:48:54;;;;;;;52.67;27.83;;;8.20;99.90;;;;;;5036758;28;20577;-43
2021/11/12 02:51:25;;;;;;;56.67;29.17;;;8.20;99.90;;;;;;5038416;28;20104;-43
2021/11/12 02:53:51;;;;;;;50.38;27.50;;;8.20;99.90;;;;;;5038354;28;20017;-43
2021/11/12 02:56:31;;;;;;;52.10;27.77;;;8.20;99.90;;;;;;5046878;28;20032;-43
2021/11/12 02:59:01;;;;;;;46.13;26.88;;;8.20;99.90;;;;;;5044838;28;20079;-43
2021/11/12 03:01:28;;;;;;;49.03;26.30;;;8.20;99.90;;;;;;5034840;28;20026;-42
2021/11/12 03:03:54;;;;;;;53.67;28.08;;;8.30;99.90;;;;;;5046682;28;20029;-42
2021/11/12 03:06:21;;;;;;;46.05;25.25;;;8.30;99.90;;;;;;5036549;28;20229;-42
2021/11/12 03:08:47;;;;;;;45.80;24.27;;;8.30;99.90;;;;;;5044783;28;20027;-43
2021/11/12 03:11:13;;;;;;;43.80;23.70;;;8.30;99.90;;;;;;5046636;28;20021;-42
2021/11/12 03:13:39;;;;;;;44.75;25.13;;;8.30;99.90;;;;;;5040363;28;20406;-43
2021/11/12 03:16:06;;;;;;;47.40;25.60;;;8.30;99.90;;;;;;5038059;28;20168;-42
2021/11/12 03:18:32;;;;;;;49.88;25.67;;;8.30;99.90;;;;;;5041399;28;20045;-42
2021/11/12 03:21:01;;;;;;;45.47;25.85;;;8.30;99.90;;;;;;5038205;28;20029;-42
2021/11/12 03:23:33;;;;;;;47.58;25.60;;;8.40;99.90;;;;;;5046791;28;20060;-43
2021/11/12 03:26:19;;;;;;;39.75;24.50;;;8.40;99.90;;;;;;5046773;28;20017;-44
2021/11/12 04:01:51;;;;;;;53.55;28.65;;;8.30;99.90;;;;;;5030227;28;20040;-43
2021/11/12 04:04:31;;;;;;;53.67;30.55;;;8.20;99.90;;;;;;5029373;28;20052;-42
2021/11/12 04:07:09;;;;;;;52.33;27.23;;;8.20;99.90;;;;;;5029730;28;20013;-43
2021/11/12 04:18:15;;;;;;;60.97;32.67;;;8.30;99.90;;;;;;5028511;28;20117;-44
2021/11/12 04:40:06;;;;;;;58.75;28.83;;;8.30;99.90;;;;;;5049618;28;20302;-44
2021/11/12 04:49:22;;;;;;;50.72;27.58;;;8.30;99.90;;;;;;5035400;28;20036;-42
2021/11/12 05:11:02;;;;;;;84.90;37.70;;;8.30;99.90;;;;;;5028722;28;20498;-44
2021/11/12 05:12:51;;;;;;;74.40;33.70;;;8.30;99.90;;;;;;5028015;28;20038;-45
2021/11/12 05:45:46;;;;;;;55.72;28.33;;;8.30;99.90;;;;;;5029425;28;20474;-43
2021/11/12 05:51:22;;;;;;;57.35;29.58;;;8.40;99.90;;;;;;5036731;28;20059;-44
2021/11/12 05:56:27;;;;;;;61.15;29.80;;;8.30;99.90;;;;;;5017662;28;20037;-43
2021/11/12 05:58:53;;;;;;;66.78;30.95;;;8.30;99.90;;;;;;5047236;28;20109;-43
2021/11/12 06:01:19;;;;;;;72.35;32.45;;;8.30;99.90;;;;;;5037551;28;20032;-44
2021/11/12 06:03:44;;;;;;;65.65;30.42;;;8.30;99.90;;;;;;5047315;28;20017;-44
2021/11/12 06:06:11;;;;;;;63.72;30.98;;;8.30;99.90;;;;;;5030190;28;20091;-44
2021/11/12 06:08:38;;;;;;;71.03;31.73;;;8.30;99.90;;;;;;5026789;28;20022;-43
2021/11/12 06:11:04;;;;;;;69.75;31.10;;;8.30;99.90;;;;;;5031459;28;20024;-44
2021/11/12 06:13:29;;;;;;;69.15;32.58;;;8.30;99.90;;;;;;5028041;28;20025;-43
2021/11/12 06:15:55;;;;;;;69.82;30.85;;;8.30;99.90;;;;;;5028472;28;20382;-42
2021/11/12 06:18:21;;;;;;;71.38;31.48;;;8.30;99.90;;;;;;5028052;28;20041;-43
2021/11/12 06:20:47;;;;;;;68.25;30.98;;;8.30;99.90;;;;;;5027741;28;20123;-43
2021/11/12 06:23:12;;;;;;;70.65;30.30;;;8.30;99.90;;;;;;5028788;28;20507;-42
2021/11/12 06:25:38;;;;;;;66.72;30.23;;;8.30;99.90;;;;;;5028590;28;20064;-42
2021/11/12 06:28:04;;;;;;;59.75;27.38;;;8.30;99.90;;;;;;5027599;28;20119;-43
2021/11/12 06:30:29;;;;;;;57.70;28.17;;;8.30;99.90;;;;;;5028470;28;20029;-43
2021/11/12 06:32:55;;;;;;;55.63;26.42;;;8.30;99.90;;;;;;5033112;28;20110;-43
2021/11/12 06:35:21;;;;;;;54.88;24.88;;;8.40;99.90;;;;;;5038668;28;20481;-42
2021/11/12 06:37:46;;;;;;;55.70;24.20;;;8.30;99.90;;;;;;5044752;28;20025;-44
2021/11/12 06:40:18;;;;;;;46.78;22.67;;;8.40;99.90;;;;;;5038926;28;20180;-44
2021/11/12 06:43:06;;;;;;;55.15;23.83;;;8.40;99.90;;;;;;5045315;28;20260;-42
2021/11/12 06:51:03;;;;;;;60.25;30.38;;;8.40;99.90;;;;;;5037927;28;20762;-43
2021/11/12 06:53:29;;;;;;;81.90;41.75;;;8.40;99.90;;;;;;5038807;28;20416;-43
2021/11/12 06:55:57;;;;;;;72.22;35.15;;;8.40;99.90;;;;;;5038204;28;20052;-43
2021/11/12 06:58:23;;;;;;;57.50;27.23;;;8.40;99.90;;;;;;5036240;28;20372;-43
2021/11/12 07:00:49;;;;;;;49.08;23.25;;;8.40;99.90;;;;;;5038066;28;20530;-43
2021/11/12 07:03:14;;;;;;;47.78;21.55;;;8.40;99.90;;;;;;5033298;28;20029;-43
2021/11/12 07:05:40;;;;;;;42.25;20.83;;;8.40;99.90;;;;;;5045474;28;20124;-42
2021/11/12 07:08:05;;;;;;;42.13;20.20;;;8.50;99.90;;;;;;5050234;28;20100;-42
2021/11/12 07:10:31;;;;;;;42.03;19.92;;;8.50;99.90;;;;;;5043559;28;20459;-42
2021/11/12 07:12:56;;;;;;;38.08;18.83;;;8.50;99.90;;;;;;5038554;28;20030;-43
2021/11/12 07:15:22;;;;;;;45.17;18.90;;;8.50;99.90;;;;;;5029578;28;20541;-42
2021/11/12 07:17:48;;;;;;;37.53;18.05;;;8.50;99.90;;;;;;5036417;28;20035;-42
2021/11/12 07:20:14;;;;;;;35.15;17.73;;;8.60;99.90;;;;;;5031189;28;20045;-42
2021/11/12 07:22:41;;;;;;;36.50;16.88;;;8.50;99.90;;;;;;5026338;28;20549;-43
2021/11/12 07:25:08;;;;;;;28.40;13.60;;;8.60;99.90;;;;;;5029807;28;20061;-43
2021/11/12 07:27:33;;;;;;;29.45;15.55;;;8.60;99.90;;;;;;5029459;28;20495;-43
2021/11/12 07:29:59;;;;;;;29.92;13.80;;;8.70;99.90;;;;;;5030251;28;20032;-43
2021/11/12 07:32:24;;;;;;;24.80;13.05;;;8.70;99.90;;;;;;5033441;28;20446;-42
2021/11/12 07:34:52;;;;;;;23.35;12.13;;;8.70;99.90;;;;;;5028717;28;20025;-42
2021/11/12 07:37:18;;;;;;;21.63;12.40;;;8.80;99.90;;;;;;5034959;28;20223;-44
2021/11/12 07:42:26;;;;;;;20.80;11.68;;;8.80;99.90;;;;;;5029229;28;20021;-43
2021/11/12 07:45:05;;;;;;;19.63;11.43;;;8.90;99.90;;;;;;5036824;28;20515;-42
2021/11/12 07:47:31;;;;;;;19.60;10.73;;;9.00;99.90;;;;;;5043845;28;20021;-43
2021/11/12 07:50:00;;;;;;;18.05;9.65;;;9.00;99.90;;;;;;5044428;28;20021;-43
2021/11/12 07:52:30;;;;;;;18.15;9.98;;;9.10;99.90;;;;;;5036974;28;20112;-43
2021/11/12 07:54:57;;;;;;;15.85;9.52;;;9.10;99.90;;;;;;5048050;28;20459;-42
2021/11/12 07:57:23;;;;;;;13.90;9.05;;;9.20;99.90;;;;;;5044214;28;20036;-42
2021/11/12 07:59:49;;;;;;;14.95;8.70;;;9.30;99.90;;;;;;5040248;28;20033;-42
2021/11/12 08:02:16;;;;;;;49.22;30.27;;;9.40;99.90;;;;;;5048424;28;20384;-44
2021/11/12 08:04:44;;;;;;;29.40;18.48;;;9.50;99.90;;;;;;5048667;28;20021;-42
2021/11/12 08:07:10;;;;;;;14.05;8.52;;;9.70;99.90;;;;;;5047636;28;20444;-43
2021/11/12 08:09:39;;;;;;;14.45;8.73;;;9.60;99.90;;;;;;5034684;28;20071;-43
2021/11/12 08:12:08;;;;;;;13.98;8.77;;;9.70;99.90;;;;;;5028096;28;20021;-42
2021/11/12 08:17:20;;;;;;;17.50;9.48;;;9.50;99.90;;;;;;5027357;28;20088;-43
2021/11/12 08:19:54;;;;;;;14.55;9.05;;;9.50;99.90;;;;;;5037459;28;20266;-43
2021/11/12 08:22:27;;;;;;;16.65;9.45;;;9.50;99.90;;;;;;5048443;28;20424;-43
2021/11/12 08:35:36;;;;;;;15.02;9.63;;;9.50;99.90;;;;;;5030164;28;20028;-42
2021/11/12 08:38:25;;;;;;;15.38;9.85;;;9.50;99.90;;;;;;5023709;28;20021;-43
2021/11/12 08:41:01;;;;;;;14.35;8.80;;;9.60;99.90;;;;;;5034736;28;20022;-43
2021/11/12 08:43:33;;;;;;;13.45;8.48;;;9.60;99.90;;;;;;5027285;28;20533;-43
2021/11/12 08:46:06;;;;;;;14.40;8.57;;;9.70;99.90;;;;;;5026871;28;20024;-43
2021/11/12 08:48:43;;;;;;;12.82;7.70;;;9.70;99.90;;;;;;5038806;28;20486;-43
2021/11/12 08:51:14;;;;;;;12.63;7.82;;;9.70;99.90;;;;;;5047161;28;20052;-42
2021/11/12 08:53:41;;;;;;;13.77;8.63;;;9.80;99.90;;;;;;5028316;28;20017;-42
2021/11/12 08:56:12;;;;;;;13.77;7.75;;;9.70;99.90;;;;;;5035383;28;20026;-43
2021/11/12 08:58:40;;;;;;;12.68;8.13;;;9.70;99.90;;;;;;5027605;28;20387;-42
2021/11/12 09:01:06;;;;;;;10.63;7.07;;;9.80;99.90;;;;;;5032136;28;20365;-43
2021/11/12 09:03:31;;;;;;;10.35;6.38;;;9.70;99.90;;;;;;5034931;28;20053;-42
2021/11/12 09:05:57;;;;;;;7.88;4.85;;;9.60;99.90;;;;;;5027529;28;20108;-43
2021/11/12 09:08:22;;;;;;;6.40;4.32;;;9.60;99.90;;;;;;5027395;28;20053;-42
2021/11/12 09:10:47;;;;;;;4.05;2.83;;;9.60;99.90;;;;;;5035742;28;20612;-43
2021/11/12 09:13:19;;;;;;;4.93;2.90;;;9.60;99.90;;;;;;5041901;28;20032;-42
2021/11/12 09:15:51;;;;;;;5.20;3.53;;;9.50;99.90;;;;;;5048192;28;20029;-42
2021/11/12 09:18:18;;;;;;;4.75;3.20;;;9.40;99.90;;;;;;5046863;28;20023;-42
2021/11/12 09:20:44;;;;;;;4.30;2.90;;;9.30;99.90;;;;;;5035193;28;20022;-42
2021/11/12 09:23:10;;;;;;;3.78;2.78;;;9.30;99.90;;;;;;5027805;28;20070;-43
2021/11/12 09:25:35;;;;;;;4.78;3.30;;;9.20;99.90;;;;;;5027554;28;20115;-43
2021/11/12 09:28:01;;;;;;;5.93;3.92;;;9.30;99.90;;;;;;5028127;28;20372;-44
2021/11/12 09:30:30;;;;;;;5.70;4.15;;;9.20;99.90;;;;;;5029437;28;20021;-42
2021/11/12 09:32:56;;;;;;;5.82;3.90;;;9.20;99.90;;;;;;5031538;28;20032;-45
2021/11/12 09:35:22;;;;;;;6.57;4.20;;;9.20;99.90;;;;;;5039295;28;20494;-42
2021/11/12 09:37:48;;;;;;;6.25;4.13;;;9.20;99.90;;;;;;5048389;28;20036;-43
2021/11/12 09:40:14;;;;;;;5.22;3.78;;;9.20;99.90;;;;;;5040595;28;20070;-43
2021/11/12 09:42:41;;;;;;;6.90;4.72;;;9.20;99.90;;;;;;5046697;28;20035;-42
2021/11/12 09:45:09;;;;;;;6.95;4.68;;;9.20;99.90;;;;;;5048766;28;20112;-42
2021/11/12 09:47:36;;;;;;;6.90;4.35;;;9.20;99.90;;;;;;5048376;28;20043;-42
2021/11/12 09:50:06;;;;;;;6.50;4.10;;;9.20;99.90;;;;;;5040423;28;20032;-42
2021/11/12 09:52:33;;;;;;;7.72;4.60;;;9.30;99.90;;;;;;5040726;28;20016;-42
2021/11/12 09:54:59;;;;;;;10.90;5.00;;;9.30;99.90;;;;;;5047166;28;20033;-42
2021/11/12 09:57:26;;;;;;;7.45;5.03;;;9.30;99.90;;;;;;5038304;28;20024;-42
2021/11/12 09:59:54;;;;;;;9.57;5.93;;;9.20;99.90;;;;;;5045974;28;20133;-42
2021/11/12 10:02:21;;;;;;;8.20;5.20;;;9.30;99.90;;;;;;5037137;28;20018;-42
2021/11/12 10:04:47;;;;;;;11.68;6.88;;;9.30;99.90;;;;;;5045751;28;20432;-42
2021/11/12 10:07:15;;;;;;;10.38;6.53;;;9.30;99.90;;;;;;5046774;28;20222;-41
2021/11/12 10:09:43;;;;;;;12.18;7.75;;;9.20;99.90;;;;;;5042846;28;20047;-41
2021/11/12 10:12:09;;;;;;;12.93;6.57;;;9.10;99.90;;;;;;5040832;28;20223;-42
2021/11/12 10:17:07;;;;;;;14.47;7.00;;;9.10;99.90;;;;;;5044432;28;20153;-43
2021/11/12 10:19:43;;;;;;;12.00;7.45;;;8.90;99.90;;;;;;5038467;28;20024;-42
2021/11/12 10:22:09;;;;;;;12.82;7.53;;;8.90;99.90;;;;;;5047026;28;20537;-42
2021/11/12 10:24:37;;;;;;;11.93;7.45;;;8.90;99.90;;;;;;5037057;28;20487;-42
2021/11/12 10:27:13;;;;;;;14.55;8.38;;;8.90;99.90;;;;;;5046868;28;20025;-41
2021/11/12 10:29:46;;;;;;;15.65;8.07;;;8.90;99.90;;;;;;5047254;28;20021;-42
2021/11/12 10:32:23;;;;;;;15.13;8.95;;;9.00;99.90;;;;;;5045283;28;20047;-42
2021/11/12 10:34:52;;;;;;;14.07;8.73;;;9.10;99.90;;;;;;5034115;28;20425;-42
2021/11/12 10:37:25;;;;;;;16.10;9.85;;;8.90;99.90;;;;;;5041114;28;20091;-41
2021/11/12 10:40:02;;;;;;;17.73;9.57;;;8.90;99.90;;;;;;5047711;28;20216;-42
2021/11/12 10:42:32;;;;;;;17.77;10.10;;;8.90;99.90;;;;;;5033916;28;20032;-41
2021/11/12 10:45:06;;;;;;;19.65;11.48;;;8.90;99.90;;;;;;5009957;28;20423;-42
2021/11/12 10:47:37;;;;;;;20.10;11.93;;;8.80;99.90;;;;;;5038286;28;20053;-42
2021/11/12 10:50:08;;;;;;;17.98;11.02;;;8.80;99.90;;;;;;5011499;28;20048;-42
2021/11/12 10:52:35;;;;;;;19.60;11.45;;;8.80;99.90;;;;;;5036372;28;20042;-41
2021/11/12 10:55:08;;;;;;;19.00;11.48;;;8.80;99.90;;;;;;5050840;28;20497;-42
2021/11/12 10:57:40;;;;;;;24.33;12.98;;;8.90;99.90;;;;;;5040235;28;20095;-41
2021/11/12 11:00:24;;;;;;;25.98;14.43;;;9.00;99.90;;;;;;5050958;28;20232;-42
2021/11/12 11:02:54;;;;;;;22.40;13.35;;;9.10;99.90;;;;;;5042241;28;20200;-42
2021/11/12 11:05:25;;;;;;;21.50;13.63;;;9.30;99.90;;;;;;5043645;28;20029;-41
2021/11/12 11:07:59;;;;;;;24.40;14.05;;;9.40;99.90;;;;;;5045300;28;20021;-42
2021/11/12 11:10:31;;;;;;;22.48;13.52;;;9.40;99.90;;;;;;5045009;28;20062;-42
2021/11/12 11:13:09;;;;;;;26.42;14.88;;;9.40;99.90;;;;;;5045204;28;20037;-42
2021/11/12 11:15:43;;;;;;;24.25;15.38;;;9.40;99.90;;;;;;5047772;28;20478;-42
2021/11/12 11:18:36;;;;;;;29.90;17.30;;;9.80;99.90;;;;;;5040737;28;20033;-42
2021/11/12 11:24:00;;;;;;;34.92;17.58;;;10.00;99.90;;;;;;5043444;28;20063;-42
2021/11/12 11:26:46;;;;;;;33.90;18.35;;;10.10;99.90;;;;;;5046567;28;20024;-43
2021/11/12 11:29:14;;;;;;;33.45;20.13;;;9.80;99.90;;;;;;5043755;28;20017;-42
2021/11/12 11:31:40;;;;;;;35.45;19.95;;;9.60;99.90;;;;;;5042040;28;20027;-41
2021/11/12 11:34:06;;;;;;;36.50;20.55;;;9.70;99.90;;;;;;5046897;28;20021;-42
2021/11/12 11:36:36;;;;;;;32.17;19.83;;;9.80;99.90;;;;;;5040183;28;20394;-43
2021/11/12 11:39:07;;;;;;;29.23;17.85;;;10.20;99.90;;;;;;5030236;28;20021;-42
2021/11/12 11:41:33;;;;;;;30.77;18.30;;;11.30;99.90;;;;;;5029713;28;20107;-43
2021/11/12 11:43:59;;;;;;;26.83;17.40;;;12.40;99.90;;;;;;5037594;28;20033;-43
2021/11/12 11:46:24;;;;;;;30.08;19.10;;;13.20;99.90;;;;;;5041566;28;20021;-43
2021/11/12 11:48:51;;;;;;;29.50;19.02;;;13.20;99.90;;;;;;5030236;28;20034;-42
2021/11/12 11:51:19;;;;;;;31.02;18.55;;;12.50;99.90;;;;;;5044011;28;20052;-42
2021/11/12 11:53:48;;;;;;;27.05;18.00;;;12.70;99.90;;;;;;5043920;28;20131;-43
2021/11/12 11:56:16;;;;;;;45.50;21.38;;;12.90;99.90;;;;;;5030357;28;20132;-43
2021/11/12 11:58:53;;;;;;;30.48;18.73;;;13.80;99.90;;;;;;5029057;28;20021;-42
2021/11/12 12:01:19;;;;;;;30.65;19.52;;;14.70;98.30;;;;;;5035799;28;20384;-42
2021/11/12 12:03:48;;;;;;;27.08;17.35;;;15.00;97.20;;;;;;5030067;28;20368;-44
2021/11/12 12:06:18;;;;;;;28.50;18.15;;;15.90;95.50;;;;;;5041092;28;20021;-43
2021/11/12 12:09:03;;;;;;;28.07;19.03;;;16.00;94.90;;;;;;5045607;28;20277;-43
2021/11/12 12:11:28;;;;;;;31.27;20.10;;;15.40;94.00;;;;;;5040831;28;20763;-43
2021/11/12 12:14:18;;;;;;;32.30;20.48;;;15.30;94.80;;;;;;5049249;28;20071;-43
2021/11/12 12:16:59;;;;;;;34.67;20.57;;;15.00;94.70;;;;;;5038860;28;20021;-43
2021/11/12 12:19:43;;;;;;;32.47;20.35;;;14.20;96.10;;;;;;5049043;28;20020;-43
2021/11/12 12:40:45;;;;;;;40.55;22.27;;;10.10;99.90;;;;;;5039451;28;20375;-43
2021/11/12 13:22:44;;;;;;;36.88;21.30;;;9.90;99.90;;;;;;5041040;28;20033;-43
2021/11/12 13:25:27;;;;;;;37.40;21.83;;;9.80;99.90;;;;;;5048090;28;20033;-42
2021/11/12 13:28:18;;;;;;;35.75;19.98;;;9.60;99.90;;;;;;5047484;28;20475;-43
2021/11/12 13:30:52;;;;;;;34.30;20.35;;;9.40;99.90;;;;;;5046396;28;20021;-42
2021/11/12 13:33:33;;;;;;;35.10;20.75;;;9.20;99.90;;;;;;5036342;28;20083;-43
2021/11/12 13:36:10;;;;;;;31.58;19.23;;;9.10;99.90;;;;;;5008577;28;20492;-43
2021/11/12 13:38:45;;;;;;;35.83;21.08;;;9.00;99.90;;;;;;5038052;28;20075;-44
2021/11/12 13:41:13;;;;;;;35.40;20.48;;;8.80;99.90;;;;;;5041089;28;20032;-42
2021/11/12 13:43:41;;;;;;;34.20;20.13;;;8.70;99.90;;;;;;5048077;28;20036;-42
2021/11/12 13:46:07;;;;;;;35.33;19.55;;;8.60;99.90;;;;;;5047723;28;20029;-45
2021/11/12 13:48:59;;;;;;;40.72;20.65;;;8.60;99.90;;;;;;5044753;28;20338;-46
2021/11/12 13:51:30;;;;;;;33.45;19.90;;;8.60;99.90;;;;;;5038027;28;20045;-44
2021/11/12 13:53:57;;;;;;;29.15;17.55;;;8.70;99.90;;;;;;5047464;28;20024;-44
2021/11/12 13:56:24;;;;;;;35.42;19.02;;;8.70;99.90;;;;;;5047709;28;20112;-41
2021/11/12 13:59:13;;;;;;;36.67;20.50;;;8.70;99.90;;;;;;5036625;28;20653;-42
2021/11/12 14:01:39;;;;;;;28.33;17.17;;;8.80;99.90;;;;;;5037840;28;20017;-42
2021/11/12 14:04:40;;;;;;;34.40;19.90;;;8.80;99.90;;;;;;5039031;28;20032;-43
2021/11/12 14:07:20;;;;;;;;;;;8.80;99.90;;;;;;4984739;28;20345;-42
2021/11/12 14:10:00;;;;;;;32.00;18.67;;;8.70;99.90;;;;;;5023424;28;20052;-42
2021/11/12 14:12:25;;;;;;;36.58;19.83;;;8.70;99.90;;;;;;5038992;28;20110;-42
2021/11/12 14:15:04;;;;;;;33.75;18.92;;;8.70;99.90;;;;;;5047255;28;20089;-41
2021/11/12 14:17:31;;;;;;;36.75;21.50;;;8.70;99.90;;;;;;5034667;28;20574;-42
2021/11/12 14:20:27;;;;;;;34.28;19.70;;;8.80;99.90;;;;;;5023379;28;20522;-41
2021/11/12 14:23:32;;;;;;;37.13;20.92;;;8.80;99.90;;;;;;5034516;28;20021;-42
2021/11/12 14:29:12;;;;;;;42.40;22.67;;;8.80;99.90;;;;;;5042463;28;20382;-42
2021/11/12 14:31:48;;;;;;;41.50;22.65;;;8.80;99.90;;;;;;5037143;28;20037;-43
2021/11/12 14:34:29;;;;;;;44.75;25.70;;;8.80;99.90;;;;;;5038895;28;20498;-41
2021/11/12 14:37:02;;;;;;;44.55;24.00;;;8.60;99.90;;;;;;5046388;28;20040;-43
2021/11/12 14:48:12;;;;;;;63.17;31.02;;;8.30;99.90;;;;;;5046506;28;20032;-40
2021/11/12 14:50:51;;;;;;;60.55;30.95;;;8.20;99.90;;;;;;5042918;28;20065;-43
2021/11/12 14:58:46;;;;;;;68.22;32.08;;;7.80;99.90;;;;;;5026172;28;20056;-41
2021/11/12 15:01:18;;;;;;;71.00;34.95;;;7.70;99.90;;;;;;5026980;28;20116;-41
2021/11/12 15:03:44;;;;;;;67.97;34.25;;;7.50;99.90;;;;;;5026771;28;20120;-41
2021/11/12 15:06:12;;;;;;;69.78;33.45;;;7.50;99.90;;;;;;5026316;28;20364;-42
2021/11/12 15:08:47;;;;;;;69.18;34.92;;;7.40;99.90;;;;;;5025765;28;20056;-41
2021/11/12 15:11:13;;;;;;;68.53;35.38;;;7.30;99.90;;;;;;5023369;28;20010;-41
2021/11/12 15:13:40;;;;;;;77.45;36.67;;;7.20;99.90;;;;;;5026826;28;20021;-42
2021/11/12 15:16:20;;;;;;;71.97;35.60;;;7.10;99.90;;;;;;5027622;28;20491;-40
2021/11/12 15:18:45;;;;;;;74.82;37.50;;;7.10;99.90;;;;;;5026308;28;20091;-40
2021/11/12 15:21:22;;;;;;;78.30;36.35;;;7.00;99.90;;;;;;5037432;28;20052;-41
2021/11/12 15:26:55;;;;;;;76.18;35.97;;;6.90;99.90;;;;;;5040064;28;20032;-42
2021/11/12 15:29:16;;;;;;;79.30;38.53;;;6.90;99.90;;;;;;5026552;28;20388;-42
2021/11/12 15:34:28;;;;;;;76.13;38.17;;;6.80;99.90;;;;;;5041579;28;20492;-42
2021/11/12 15:40:04;;;;;;;73.93;37.42;;;6.70;99.90;;;;;;5014220;28;20200;-41
2021/11/12 15:42:49;;;;;;;80.95;38.03;;;6.70;99.90;;;;;;5038635;28;20036;-41
2021/11/12 15:45:23;;;;;;;78.00;38.65;;;6.70;99.90;;;;;;5037884;28;20025;-41
2021/11/12 15:47:55;;;;;;;78.78;37.22;;;6.60;99.90;;;;;;5042444;28;20529;-41
2021/11/12 15:50:26;;;;;;;86.38;40.45;;;6.60;99.90;;;;;;5044700;28;20083;-41
2021/11/12 15:55:30;;;;;;;86.30;39.47;;;6.60;99.90;;;;;;5041962;28;20063;-41
2021/11/12 16:00:53;;;;;;;83.72;39.30;;;6.60;99.90;;;;;;5041410;28;20100;-41
2021/11/12 16:06:42;;;;;;;85.30;40.75;;;6.50;99.90;;;;;;5038119;28;20032;-42
2021/11/12 16:09:21;;;;;;;84.65;39.90;;;6.40;99.90;;;;;;5028057;28;20030;-43
2021/11/12 16:22:40;;;;;;;90.78;41.97;;;6.10;99.90;;;;;;5044330;28;20426;-41
2021/11/12 16:25:16;;;;;;;105.05;46.63;;;6.10;99.90;;;;;;5040631;28;20048;-41
2021/11/12 16:27:47;;;;;;;96.10;43.90;;;6.00;99.90;;;;;;5043704;28;20037;-42
2021/11/12 16:30:15;;;;;;;94.68;43.47;;;5.90;99.90;;;;;;5039754;28;20028;-41
2021/11/12 16:35:10;;;;;;;88.28;38.95;;;5.90;99.90;;;;;;5041212;28;20021;-41
2021/11/12 16:37:36;;;;;;;94.50;42.03;;;5.80;99.90;;;;;;5048478;28;20040;-41
2021/11/12 16:42:42;;;;;;;106.88;45.88;;;5.70;99.90;;;;;;5031703;28;20548;-41
2021/11/12 16:45:15;;;;;;;100.75;43.83;;;5.50;99.90;;;;;;5036069;28;20415;-40
2021/11/12 16:47:50;;;;;;;100.68;43.42;;;5.50;99.90;;;;;;5046107;28;20052;-41
2021/11/12 16:50:25;;;;;;;96.38;42.75;;;5.60;99.90;;;;;;5038014;28;20024;-41
2021/11/12 16:53:04;;;;;;;101.30;44.08;;;5.70;99.90;;;;;;5047841;28;20525;-41
2021/11/12 17:13:33;;;;;;;101.45;42.28;;;5.70;99.90;;;;;;5046806;28;20055;-43
2021/11/12 17:21:36;;;;;;;;;;;5.60;99.90;;;;;;5030603;28;20127;-43
2021/11/12 17:45:54;;;;;;;102.90;45.28;;;5.30;99.90;;;;;;5047622;28;20483;-40
2021/11/12 17:48:23;;;;;;;103.40;47.47;;;5.30;99.90;;;;;;5046626;28;20471;-40
2021/11/12 18:07:15;;;;;;;118.05;49.38;;;5.00;99.90;;;;;;5047051;28;20032;-42
2021/11/12 18:23:08;;;;;;;115.97;51.42;;;5.00;99.90;;;;;;5026245;28;20040;-42
2021/11/12 21:45:39;;;;;;;66.30;30.02;;;4.10;99.90;;;;;;5008189;28;20029;-41
2021/11/12 21:48:06;;;;;;;70.75;31.17;;;4.10;99.90;;;;;;5007467;28;20051;-41
2021/11/12 21:50:32;;;;;;;68.40;32.30;;;4.10;99.90;;;;;;5008132;28;20026;-42
2021/11/12 21:52:58;;;;;;;70.57;31.35;;;4.10;99.90;;;;;;5007926;28;20014;-42
2021/11/12 21:55:24;;;;;;;75.07;34.25;;;4.00;99.90;;;;;;5008137;28;20092;-41
2021/11/12 21:57:50;;;;;;;74.18;34.15;;;4.10;99.90;;;;;;5007137;28;20038;-43
2021/11/12 22:00:16;;;;;;;102.30;34.63;;;4.10;99.90;;;;;;5008154;28;20056;-43
2021/11/12 22:02:42;;;;;;;94.30;37.28;;;4.10;99.90;;;;;;5017139;28;20029;-42
2021/11/12 22:05:08;;;;;;;71.80;32.85;;;4.00;99.90;;;;;;5039314;28;20187;-42
2021/11/12 22:07:36;;;;;;;86.78;35.53;;;4.00;99.90;;;;;;5047211;28;20033;-42
2021/11/12 22:10:03;;;;;;;78.70;34.22;;;4.10;99.90;;;;;;5037097;28;20048;-42
2021/11/12 22:12:30;;;;;;;76.22;34.88;;;4.10;99.90;;;;;;5041686;28;20017;-42
2021/11/12 22:14:55;;;;;;;80.30;34.63;;;4.20;99.90;;;;;;5045027;28;20036;-42
2021/11/12 22:17:21;;;;;;;89.07;36.83;;;4.20;99.90;;;;;;5039709;28;20048;-42
2021/11/12 22:19:46;;;;;;;73.53;32.38;;;4.20;99.90;;;;;;5028716;28;20033;-43